createdAt,value
2023-03-17T00:01:47.638Z,97631.97
2023-03-17T00:04:15.671Z,97632.44
2023-03-17T00:06:42.755Z,97630.16
2023-03-17T00:09:17.730Z,97632.44
2023-03-17T00:11:45.826Z,97634.16
2023-03-17T00:14:12.842Z,97638.94
2023-03-17T00:16:45.512Z,97642.16
2023-03-17T00:19:21.845Z,97639.88
2023-03-17T00:21:50.033Z,97628.91
2023-03-17T00:24:17.696Z,97631.22
2023-03-17T00:26:44.901Z,97614.56
2023-03-17T00:29:13.785Z,97617.16
2023-03-17T00:31:45.479Z,97619.19
2023-03-17T00:34:16.801Z,97611.00
2023-03-17T00:36:50.754Z,97610.06
2023-03-17T00:39:18.857Z,97611.34
2023-03-17T00:41:50.698Z,97610.56
2023-03-17T00:44:19.114Z,97613.03
2023-03-17T00:46:49.145Z,97609.19
2023-03-17T00:49:21.621Z,97611.19
2023-03-17T00:51:49.855Z,97609.97
2023-03-17T00:54:18.002Z,97604.59
2023-03-17T00:56:45.856Z,97606.59
2023-03-17T00:59:21.524Z,97588.66
2023-03-17T01:01:49.806Z,97586.19
2023-03-17T01:04:19.749Z,97570.75
2023-03-17T01:06:48.368Z,97572.59
2023-03-17T01:09:18.677Z,97574.91
2023-03-17T01:11:47.499Z,97563.97
2023-03-17T01:14:16.548Z,97563.19
2023-03-17T01:16:46.572Z,97562.59
2023-03-17T01:19:14.596Z,97564.91
2023-03-17T01:21:42.712Z,97565.84
2023-03-17T01:24:11.034Z,97568.94
2023-03-17T01:26:39.939Z,97568.47
2023-03-17T01:29:08.096Z,97557.81
2023-03-17T01:31:35.692Z,97558.47
2023-03-17T01:34:04.496Z,97559.69
2023-03-17T01:36:31.396Z,97559.88
2023-03-17T01:38:58.819Z,97568.19
2023-03-17T01:41:26.449Z,97555.38
2023-03-17T01:43:54.478Z,97554.91
2023-03-17T01:46:25.998Z,97551.66
2023-03-17T01:49:22.926Z,97547.94
2023-03-17T01:51:53.297Z,97542.38
2023-03-17T01:54:28.945Z,97531.00
2023-03-17T01:57:01.527Z,97535.47
2023-03-17T01:59:35.054Z,97528.22
2023-03-17T02:02:06.659Z,97530.50
2023-03-17T02:04:34.387Z,97535.59
2023-03-17T02:07:05.291Z,97530.03
2023-03-17T02:09:34.269Z,97524.31
2023-03-17T02:12:02.927Z,97526.63
2023-03-17T02:14:30.267Z,97513.97
2023-03-17T02:16:57.700Z,97500.06
2023-03-17T02:19:25.587Z,97507.47
2023-03-17T02:21:58.949Z,97507.47
2023-03-17T02:24:39.744Z,97513.78
2023-03-17T02:27:21.423Z,97510.72
2023-03-17T02:29:49.055Z,97501.63
2023-03-17T02:32:17.974Z,97498.84
2023-03-17T02:34:50.132Z,97507.63
2023-03-17T02:37:18.997Z,97504.59
2023-03-17T02:39:47.213Z,97494.22
2023-03-17T02:42:15.231Z,97499.13
2023-03-17T02:44:42.088Z,97494.81
2023-03-17T02:47:08.992Z,97496.34
2023-03-17T02:49:37.521Z,97505.28
2023-03-17T02:52:07.442Z,97500.97
2023-03-17T02:54:34.457Z,97495.88
2023-03-17T02:57:01.709Z,97496.34
2023-03-17T02:59:28.664Z,97487.72
2023-03-17T03:01:56.446Z,97491.56
2023-03-17T03:04:24.616Z,97503.75
2023-03-17T03:06:52.809Z,97510.53
2023-03-17T03:09:20.733Z,97511.78
2023-03-17T03:11:47.935Z,97502.22
2023-03-17T03:14:15.476Z,97501.91
2023-03-17T03:16:43.922Z,97505.91
2023-03-17T03:19:11.050Z,97505.31
2023-03-17T03:21:37.943Z,97512.41
2023-03-17T03:24:05.825Z,97500.72
2023-03-17T03:26:32.940Z,97509.38
2023-03-17T03:29:02.805Z,97503.31
2023-03-17T03:31:29.821Z,97498.41
2023-03-17T03:33:56.897Z,97500.91
2023-03-17T03:36:23.839Z,97503.56
2023-03-17T03:38:51.144Z,97503.56
2023-03-17T03:41:18.470Z,97490.63
2023-03-17T03:43:45.322Z,97481.06
2023-03-17T03:46:12.329Z,97476.72
2023-03-17T03:48:39.260Z,97481.69
2023-03-17T03:51:06.190Z,97470.00
2023-03-17T03:53:33.019Z,97465.97
2023-03-17T03:56:00.576Z,97455.81
2023-03-17T03:58:27.749Z,97458.31
2023-03-17T04:00:54.596Z,97456.94
2023-03-17T04:03:22.000Z,97454.94
2023-03-17T04:05:50.371Z,97467.28
2023-03-17T04:08:17.575Z,97461.41
2023-03-17T04:10:44.768Z,97472.81
2023-03-17T04:13:11.895Z,97471.28
2023-03-17T04:15:39.854Z,97466.50
2023-03-17T04:18:06.801Z,97470.34
2023-03-17T04:20:35.578Z,97464.97
2023-03-17T04:23:04.232Z,97466.69
2023-03-17T04:25:32.627Z,97467.31
2023-03-17T04:27:59.568Z,97472.22
2023-03-17T04:30:26.563Z,97470.69
2023-03-17T04:32:53.639Z,97455.56
2023-03-17T04:35:24.538Z,97455.84
2023-03-17T04:37:51.733Z,97452.16
2023-03-17T04:40:19.307Z,97455.22
2023-03-17T04:42:46.890Z,97451.22
2023-03-17T04:45:15.712Z,97448.13
2023-03-17T04:47:43.107Z,97457.53
2023-03-17T04:50:10.966Z,97449.66
2023-03-17T04:52:39.184Z,97449.66
2023-03-17T04:55:08.495Z,97462.59
2023-03-17T04:57:36.842Z,97462.00
2023-03-17T05:00:08.499Z,97458.44
2023-03-17T05:02:36.054Z,97459.53
2023-03-17T05:05:03.243Z,97469.41
2023-03-17T05:07:31.790Z,97470.19
2023-03-17T05:09:59.990Z,97474.97
2023-03-17T05:12:27.140Z,97471.88
2023-03-17T05:14:54.048Z,97472.81
2023-03-17T05:17:21.011Z,97471.28
2023-03-17T05:19:48.027Z,97471.75
2023-03-17T05:22:14.933Z,97470.69
2023-03-17T05:24:42.122Z,97472.22
2023-03-17T05:27:09.509Z,97474.25
2023-03-17T05:29:36.347Z,97461.28
2023-03-17T05:32:04.937Z,97450.19
2023-03-17T05:34:32.314Z,97434.28
2023-03-17T05:36:59.155Z,97428.91
2023-03-17T05:39:26.123Z,97432.19
2023-03-17T05:41:53.519Z,97436.19
2023-03-17T05:44:22.660Z,97438.84
2023-03-17T05:46:49.504Z,97430.50
2023-03-17T05:49:16.447Z,97416.63
2023-03-17T05:51:43.677Z,97421.25
2023-03-17T05:54:10.684Z,97419.22
2023-03-17T05:56:37.745Z,97422.91
2023-03-17T05:59:05.496Z,97421.69
2023-03-17T06:01:33.161Z,97425.50
2023-03-17T06:04:01.941Z,97415.16
2023-03-17T06:06:29.121Z,97411.16
2023-03-17T06:08:57.493Z,97424.09
2023-03-17T06:11:24.462Z,97433.97
2023-03-17T06:13:51.413Z,97434.72
2023-03-17T06:16:19.157Z,97418.66
2023-03-17T06:18:50.097Z,97428.81
2023-03-17T06:21:19.922Z,97430.16
2023-03-17T06:23:46.839Z,97437.84
2023-03-17T06:26:15.567Z,97437.84
2023-03-17T06:28:44.148Z,97434.72
2023-03-17T06:31:11.295Z,97437.16
2023-03-17T06:33:39.159Z,97436.13
2023-03-17T06:36:06.701Z,97428.19
2023-03-17T06:38:33.906Z,97421.13
2023-03-17T06:41:00.966Z,97416.72
2023-03-17T06:43:27.926Z,97406.28
2023-03-17T06:45:56.050Z,97402.94
2023-03-17T06:48:23.695Z,97407.16
2023-03-17T06:50:50.655Z,97409.06
2023-03-17T06:53:17.911Z,97416.25
2023-03-17T06:55:45.200Z,97420.47
2023-03-17T06:58:13.598Z,97418.84
2023-03-17T07:00:40.857Z,97423.81
2023-03-17T07:03:10.086Z,97437.81
2023-03-17T07:05:38.252Z,97441.47
2023-03-17T07:08:08.582Z,97450.44
2023-03-17T07:10:36.925Z,97441.97
2023-03-17T07:13:06.311Z,97442.94
2023-03-17T07:15:36.136Z,97448.66
2023-03-17T07:18:05.258Z,97445.72
2023-03-17T07:20:33.754Z,97436.00
2023-03-17T07:23:00.985Z,97442.94
2023-03-17T07:25:30.701Z,97436.22
2023-03-17T07:27:58.628Z,97434.06
2023-03-17T07:30:25.535Z,97431.69
2023-03-17T07:32:52.809Z,97441.00
2023-03-17T07:35:20.300Z,97448.78
2023-03-17T07:37:47.599Z,97445.38
2023-03-17T07:40:14.725Z,97446.03
2023-03-17T07:42:42.428Z,97444.19
2023-03-17T07:45:10.211Z,97446.88
2023-03-17T07:47:37.394Z,97443.38
2023-03-17T07:50:04.813Z,97431.31
2023-03-17T07:52:32.208Z,97425.03
2023-03-17T07:54:59.255Z,97421.28
2023-03-17T07:57:26.184Z,97433.03
2023-03-17T07:59:53.161Z,97418.59
2023-03-17T08:02:21.321Z,97419.69
2023-03-17T08:04:49.266Z,97420.75
2023-03-17T08:07:16.695Z,97430.94
2023-03-17T08:09:43.689Z,97428.19
2023-03-17T08:12:11.012Z,97423.88
2023-03-17T08:14:38.198Z,97421.63
2023-03-17T08:17:05.410Z,97403.06
2023-03-17T08:19:33.452Z,97411.50
2023-03-17T08:22:01.556Z,97411.50
2023-03-17T08:24:29.577Z,97408.22
2023-03-17T08:26:58.074Z,97416.09
2023-03-17T08:29:26.406Z,97405.16
2023-03-17T08:31:53.340Z,97404.91
2023-03-17T08:34:20.229Z,97410.53
2023-03-17T08:36:47.257Z,97413.34
2023-03-17T08:39:14.172Z,97408.50
2023-03-17T08:41:43.618Z,97399.81
2023-03-17T08:44:10.828Z,97396.25
2023-03-17T08:46:37.782Z,97394.44
2023-03-17T08:49:05.145Z,97397.75
2023-03-17T08:51:34.918Z,97386.25
2023-03-17T08:54:02.287Z,97377.56
2023-03-17T08:56:29.903Z,97366.56
2023-03-17T08:58:57.210Z,97367.78
2023-03-17T09:01:27.493Z,97363.44
2023-03-17T09:03:55.227Z,97365.94
2023-03-17T09:06:23.025Z,97352.34
2023-03-17T09:08:55.767Z,97345.91
2023-03-17T09:11:28.614Z,97348.63
2023-03-17T09:13:56.573Z,97342.97
2023-03-17T09:16:24.793Z,97338.28
2023-03-17T09:18:52.076Z,97337.25
2023-03-17T09:21:19.418Z,97342.81
2023-03-17T09:23:47.334Z,97336.91
2023-03-17T09:26:14.949Z,97344.84
2023-03-17T09:28:42.899Z,97343.75
2023-03-17T09:31:11.741Z,97335.19
2023-03-17T09:33:39.887Z,97340.28
2023-03-17T09:36:07.532Z,97338.16
2023-03-17T09:38:35.926Z,97336.88
2023-03-17T09:41:20.366Z,97336.66
2023-03-17T09:44:12.400Z,97343.31
2023-03-17T09:47:01.034Z,97343.31
2023-03-17T09:49:47.262Z,97341.59
2023-03-17T09:52:18.866Z,97335.97
2023-03-17T09:54:49.757Z,97333.38
2023-03-17T09:57:31.589Z,97327.94
2023-03-17T10:00:19.429Z,97328.09
2023-03-17T10:02:47.412Z,97327.53
2023-03-17T10:05:35.106Z,97329.88
2023-03-17T10:08:32.221Z,97335.09
2023-03-17T10:11:18.296Z,97336.00
2023-03-17T10:13:58.050Z,97339.09
2023-03-17T10:16:54.935Z,97329.56
2023-03-17T10:19:35.646Z,97326.31
2023-03-17T10:22:16.618Z,97311.50
2023-03-17T10:24:49.459Z,97318.69
2023-03-17T10:27:17.365Z,97314.72
2023-03-17T10:29:47.882Z,97295.72
2023-03-17T10:32:16.671Z,97311.34
2023-03-17T10:34:44.254Z,97313.00
2023-03-17T10:37:24.010Z,97291.47
2023-03-17T10:39:53.040Z,97292.16
2023-03-17T10:42:29.337Z,97296.81
2023-03-17T10:45:07.624Z,97299.19
2023-03-17T10:47:40.977Z,97291.75
2023-03-17T10:50:22.913Z,97286.59
2023-03-17T10:53:04.839Z,97287.94
2023-03-17T10:55:34.399Z,97279.44
2023-03-17T10:58:09.351Z,97268.97
2023-03-17T11:00:38.714Z,97265.41
2023-03-17T11:03:19.034Z,97258.53
2023-03-17T11:05:57.969Z,97252.50
2023-03-17T11:08:25.168Z,97254.38
2023-03-17T11:10:57.141Z,97256.84
2023-03-17T11:13:30.467Z,97247.16
2023-03-17T11:16:10.835Z,97238.16
2023-03-17T11:18:39.803Z,97233.63
2023-03-17T11:21:11.179Z,97232.84
2023-03-17T11:23:54.107Z,97234.34
2023-03-17T11:26:53.965Z,97233.47
2023-03-17T11:29:57.517Z,97229.69
2023-03-17T11:32:30.502Z,97221.84
2023-03-17T11:35:12.958Z,97220.94
2023-03-17T11:38:05.570Z,97219.25
2023-03-17T11:40:41.155Z,97224.31
2023-03-17T11:43:37.005Z,97224.00
2023-03-17T11:46:14.464Z,97217.25
2023-03-17T11:48:44.876Z,97215.75
2023-03-17T11:51:32.280Z,97214.66
2023-03-17T11:54:29.869Z,97216.97
2023-03-17T11:57:05.000Z,97212.97
2023-03-17T11:59:45.605Z,97214.31
2023-03-17T12:02:22.537Z,97218.09
2023-03-17T12:05:13.563Z,97218.28
2023-03-17T12:07:48.738Z,97215.81
2023-03-17T12:10:18.782Z,97207.88
2023-03-17T12:13:01.437Z,97205.97
2023-03-17T12:15:40.579Z,97203.72
2023-03-17T12:18:33.238Z,97199.56
2023-03-17T12:21:05.643Z,97205.41
2023-03-17T12:23:50.812Z,97198.06
2023-03-17T12:26:31.902Z,97204.50
2023-03-17T12:29:06.460Z,97207.13
2023-03-17T12:31:41.854Z,97195.41
2023-03-17T12:34:32.350Z,97198.81
2023-03-17T12:36:59.705Z,97211.47
2023-03-17T12:39:35.581Z,97199.00
2023-03-17T12:42:18.400Z,97187.84
2023-03-17T12:45:17.507Z,97173.44
2023-03-17T12:47:56.321Z,97177.50
2023-03-17T12:50:45.065Z,97167.91
2023-03-17T12:53:35.813Z,97164.19
2023-03-17T12:56:38.800Z,97166.03
2023-03-17T12:59:11.640Z,97162.25
2023-03-17T13:01:55.789Z,97168.19
2023-03-17T13:04:27.765Z,97165.41
2023-03-17T13:07:10.076Z,97154.13
2023-03-17T13:09:49.893Z,97156.81
2023-03-17T13:12:35.949Z,97144.03
2023-03-17T13:15:04.010Z,97146.13
2023-03-17T13:17:32.966Z,97148.25
2023-03-17T13:19:59.741Z,97146.03
2023-03-17T13:22:34.881Z,97134.19
2023-03-17T13:25:35.274Z,97135.13
2023-03-17T13:28:24.024Z,97146.13
2023-03-17T13:31:13.584Z,97144.59
2023-03-17T13:33:53.401Z,97136.38
2023-03-17T13:36:42.859Z,97127.47
2023-03-17T13:39:21.290Z,97134.94
2023-03-17T13:42:05.474Z,97123.97
2023-03-17T13:45:09.243Z,97118.91
2023-03-17T13:47:40.322Z,97123.28
2023-03-17T13:50:09.335Z,97116.97
2023-03-17T13:52:46.221Z,97119.81
2023-03-17T13:55:20.724Z,97118.00
2023-03-17T13:58:11.845Z,97109.72
2023-03-17T14:00:47.928Z,97104.78
2023-03-17T14:03:34.888Z,97109.00
2023-03-17T14:06:06.965Z,97104.03
2023-03-17T14:08:36.472Z,97104.00
2023-03-17T14:11:42.241Z,97095.25
2023-03-17T14:14:31.443Z,97092.34
2023-03-17T14:17:07.407Z,97090.56
2023-03-17T14:19:34.713Z,97091.03
2023-03-17T14:22:20.707Z,97088.03
2023-03-17T14:24:51.887Z,97090.16
2023-03-17T14:27:20.166Z,97093.94
2023-03-17T14:29:47.577Z,97090.09
2023-03-17T14:32:18.869Z,97096.88
2023-03-17T14:34:59.448Z,97083.22
2023-03-17T14:37:27.835Z,97079.78
2023-03-17T14:39:57.825Z,97083.13
2023-03-17T14:42:30.599Z,97086.63
2023-03-17T14:45:05.698Z,97079.66
2023-03-17T14:47:41.193Z,97079.00
2023-03-17T14:50:25.037Z,97066.00
2023-03-17T14:52:52.055Z,97061.22
2023-03-17T14:55:20.091Z,97064.34
2023-03-17T14:57:53.033Z,97071.41
2023-03-17T15:00:38.245Z,97066.78
2023-03-17T15:03:18.975Z,97061.72
2023-03-17T15:05:46.813Z,97059.28
2023-03-17T15:08:34.536Z,97061.16
2023-03-17T15:11:07.584Z,97061.94
2023-03-17T15:13:38.092Z,97053.63
2023-03-17T15:16:22.684Z,97060.88
2023-03-17T15:18:57.627Z,97059.72
2023-03-17T15:21:32.858Z,97060.84
2023-03-17T15:24:28.924Z,97062.59
2023-03-17T15:27:17.699Z,97061.84
2023-03-17T15:29:45.775Z,97046.91
2023-03-17T15:32:20.393Z,97051.47
2023-03-17T15:34:48.637Z,97041.22
2023-03-17T15:37:20.777Z,97039.00
2023-03-17T15:39:49.063Z,97030.69
2023-03-17T15:42:20.016Z,97033.72
2023-03-17T15:44:47.306Z,97036.72
2023-03-17T15:47:16.762Z,97036.56
2023-03-17T15:49:48.717Z,97029.56
2023-03-17T15:52:25.413Z,97031.28
2023-03-17T15:54:58.303Z,97028.50
2023-03-17T15:57:26.422Z,97025.84
2023-03-17T15:59:53.712Z,97030.41
2023-03-17T16:02:34.826Z,97026.25
2023-03-17T16:05:15.619Z,97015.09
2023-03-17T16:07:43.315Z,97022.28
2023-03-17T16:10:19.372Z,97024.94
2023-03-17T16:12:46.870Z,97030.09
2023-03-17T16:15:23.108Z,97031.22
2023-03-17T16:18:00.753Z,97016.50
2023-03-17T16:20:34.329Z,97020.28
2023-03-17T16:23:12.525Z,97018.41
2023-03-17T16:25:40.063Z,97023.72
2023-03-17T16:28:33.537Z,97023.19
2023-03-17T16:31:02.428Z,97024.13
2023-03-17T16:33:39.562Z,97023.38
2023-03-17T16:36:06.864Z,97015.59
2023-03-17T16:38:34.460Z,97018.28
2023-03-17T16:41:07.804Z,97010.53
2023-03-17T16:43:39.968Z,97026.59
2023-03-17T16:46:07.532Z,97021.13
2023-03-17T16:48:34.554Z,97023.38
2023-03-17T16:51:02.291Z,97026.41
2023-03-17T16:53:29.204Z,97020.72
2023-03-17T16:55:56.866Z,97015.06
2023-03-17T16:58:32.723Z,97014.13
2023-03-17T17:01:02.850Z,97014.88
2023-03-17T17:03:31.504Z,97016.56
2023-03-17T17:06:00.172Z,97024.84
2023-03-17T17:08:27.199Z,97027.84
2023-03-17T17:10:54.040Z,97016.50
2023-03-17T17:13:21.348Z,97020.63
2023-03-17T17:15:48.734Z,97019.84
2023-03-17T17:18:27.474Z,97013.97
2023-03-17T17:20:59.123Z,97010.91
2023-03-17T17:23:27.140Z,97015.56
2023-03-17T17:25:54.626Z,97012.50
2023-03-17T17:28:23.976Z,97013.22
2023-03-17T17:30:52.270Z,97014.50
2023-03-17T17:33:20.247Z,97024.25
2023-03-17T17:35:48.881Z,97025.53
2023-03-17T17:38:27.690Z,97025.81
2023-03-17T17:40:56.985Z,97023.53
2023-03-17T17:43:25.044Z,97028.34
2023-03-17T17:45:52.751Z,97027.75
2023-03-17T17:48:24.061Z,97028.63
2023-03-17T17:50:52.601Z,97027.22
2023-03-17T17:53:19.583Z,97024.34
2023-03-17T17:55:48.151Z,97025.06
2023-03-17T17:58:17.293Z,97030.84
2023-03-17T18:00:44.349Z,97035.31
2023-03-17T18:03:12.392Z,97037.72
2023-03-17T18:05:40.052Z,97033.19
2023-03-17T18:08:07.423Z,97036.69
2023-03-17T18:10:35.089Z,97036.50
2023-03-17T18:13:02.205Z,97024.78
2023-03-17T18:15:29.685Z,97029.66
2023-03-17T18:17:56.975Z,97018.72
2023-03-17T18:20:26.218Z,97019.06
2023-03-17T18:22:54.242Z,97032.75
2023-03-17T18:25:21.758Z,97034.38
2023-03-17T18:27:48.700Z,97035.84
2023-03-17T18:30:23.480Z,97033.34
2023-03-17T18:32:56.449Z,97039.13
2023-03-17T18:35:27.473Z,97036.75
2023-03-17T18:37:57.648Z,97034.06
2023-03-17T18:40:25.828Z,97029.53
2023-03-17T18:42:56.086Z,97040.78
2023-03-17T18:45:24.198Z,97039.28
2023-03-17T18:47:51.725Z,97039.06
2023-03-17T18:50:22.105Z,97045.59
2023-03-17T18:52:50.466Z,97038.22
2023-03-17T18:55:17.806Z,97044.94
2023-03-17T18:57:47.654Z,97044.75
2023-03-17T19:00:17.898Z,97050.38
2023-03-17T19:02:51.370Z,97044.53
2023-03-17T19:05:19.816Z,97050.06
2023-03-17T19:07:47.276Z,97045.72
2023-03-17T19:10:15.967Z,97056.81
2023-03-17T19:12:44.671Z,97057.34
2023-03-17T19:15:13.722Z,97049.22
2023-03-17T19:17:42.145Z,97046.41
2023-03-17T19:20:10.232Z,97055.16
2023-03-17T19:22:37.170Z,97055.78
2023-03-17T19:25:05.456Z,97053.31
2023-03-17T19:27:32.872Z,97051.03
2023-03-17T19:29:59.793Z,97050.81
2023-03-17T19:32:26.723Z,97054.16
2023-03-17T19:34:53.728Z,97054.50
2023-03-17T19:37:21.221Z,97059.59
2023-03-17T19:39:48.521Z,97050.91
2023-03-17T19:42:17.118Z,97057.84
2023-03-17T19:44:46.489Z,97048.19
2023-03-17T19:47:16.021Z,97059.03
2023-03-17T19:49:42.890Z,97061.50
2023-03-17T19:52:10.604Z,97062.94
2023-03-17T19:54:45.226Z,97065.31
2023-03-17T19:57:13.735Z,97064.66
2023-03-17T19:59:41.059Z,97064.00
2023-03-17T20:02:13.542Z,97061.47
2023-03-17T20:04:43.939Z,97071.78
2023-03-17T20:07:11.624Z,97062.66
2023-03-17T20:09:39.436Z,97064.81
2023-03-17T20:12:06.908Z,97060.56
2023-03-17T20:14:34.660Z,97057.63
2023-03-17T20:17:02.108Z,97060.53
2023-03-17T20:19:30.004Z,97060.63
2023-03-17T20:21:58.746Z,97065.78
2023-03-17T20:24:27.411Z,97055.41
2023-03-17T20:26:57.335Z,97066.19
2023-03-17T20:29:26.111Z,97067.50
2023-03-17T20:31:54.208Z,97071.38
2023-03-17T20:34:22.178Z,97058.47
2023-03-17T20:36:49.147Z,97060.81
2023-03-17T20:39:20.031Z,97053.47
2023-03-17T20:41:49.080Z,97063.19
2023-03-17T20:44:16.836Z,97062.44
2023-03-17T20:46:46.333Z,97055.84
2023-03-17T20:49:16.240Z,97065.09
2023-03-17T20:51:44.211Z,97062.34
2023-03-17T20:54:12.843Z,97054.25
2023-03-17T20:56:40.355Z,97060.44
2023-03-17T20:59:09.651Z,97060.53
2023-03-17T21:01:40.338Z,97064.41
2023-03-17T21:04:09.495Z,97072.06
2023-03-17T21:06:37.607Z,97069.03
2023-03-17T21:09:06.666Z,97072.91
2023-03-17T21:11:37.802Z,97069.13
2023-03-17T21:14:08.149Z,97073.13
2023-03-17T21:16:36.234Z,97068.84
2023-03-17T21:19:07.966Z,97083.19
2023-03-17T21:21:38.579Z,97080.38
2023-03-17T21:24:09.580Z,97082.44
2023-03-17T21:26:38.070Z,97079.41
2023-03-17T21:29:04.893Z,97082.72
2023-03-17T21:31:33.287Z,97078.63
2023-03-17T21:34:02.325Z,97087.59
2023-03-17T21:36:29.209Z,97087.13
2023-03-17T21:38:56.312Z,97076.19
2023-03-17T21:41:33.645Z,97072.66
2023-03-17T21:44:01.697Z,97077.34
2023-03-17T21:46:29.791Z,97081.75
2023-03-17T21:48:58.579Z,97079.28
2023-03-17T21:51:27.669Z,97084.94
2023-03-17T21:53:54.735Z,97075.84
2023-03-17T21:56:21.715Z,97085.31
2023-03-17T21:58:49.915Z,97092.22
2023-03-17T22:01:18.321Z,97086.34
2023-03-17T22:03:45.268Z,97081.31
2023-03-17T22:06:13.435Z,97084.19
2023-03-17T22:08:40.676Z,97085.53
2023-03-17T22:11:18.166Z,97077.91
2023-03-17T22:13:45.929Z,97076.38
2023-03-17T22:16:14.764Z,97082.56
2023-03-17T22:18:42.178Z,97070.38
2023-03-17T22:21:10.330Z,97074.25
2023-03-17T22:23:42.463Z,97077.31
2023-03-17T22:26:14.925Z,97066.41
2023-03-17T22:28:43.146Z,97078.63
2023-03-17T22:31:21.787Z,97075.59
2023-03-17T22:33:50.458Z,97067.22
2023-03-17T22:36:18.200Z,97076.91
2023-03-17T22:38:46.284Z,97084.34
2023-03-17T22:41:16.297Z,97087.44
2023-03-17T22:43:43.684Z,97093.25
2023-03-17T22:46:12.115Z,97085.91
2023-03-17T22:48:40.434Z,97085.94
2023-03-17T22:51:13.844Z,97087.75
2023-03-17T22:53:41.027Z,97084.69
2023-03-17T22:56:09.050Z,97093.59
2023-03-17T22:58:36.036Z,97091.31
2023-03-17T23:01:03.856Z,97090.53
2023-03-17T23:03:30.811Z,97093.84
2023-03-17T23:05:59.867Z,97088.53
2023-03-17T23:08:29.451Z,97101.00
2023-03-17T23:10:56.829Z,97107.91
2023-03-17T23:13:24.310Z,97097.72
2023-03-17T23:15:51.391Z,97091.38
2023-03-17T23:18:18.186Z,97102.06
2023-03-17T23:20:45.889Z,97093.94
2023-03-17T23:23:13.158Z,97103.63
2023-03-17T23:25:40.354Z,97104.16
2023-03-17T23:28:07.790Z,97097.78
2023-03-17T23:30:35.866Z,97095.50
2023-03-17T23:33:04.997Z,97099.09
2023-03-17T23:35:32.401Z,97101.16
2023-03-17T23:38:00.374Z,97097.59
2023-03-17T23:40:27.270Z,97103.19
2023-03-17T23:42:55.222Z,97102.44
2023-03-17T23:45:23.320Z,97102.69
2023-03-17T23:47:51.680Z,97110.09
2023-03-17T23:50:19.526Z,97109.31
2023-03-17T23:52:47.286Z,97107.06
2023-03-17T23:55:16.134Z,97118.25
2023-03-17T23:57:44.248Z,97113.66
